• Join FlightAware (Why Join?)
  • Login
  • US Flag 
03:03AM EDT


 

Airport Tracker/Info


-or-


 

Live Flight TrackerFlight Track Log ✈ USC110 ✈ 2013年 06月 07日 ✈ KLCK - KBKL

Flight Track Log - Related Links

Times and Time Zones

All times are in EDT time to prevent confusion due to time zone crossing. See the USC110 flight status page for this flight to view local times or setup timezone preferences in your user account.

Time Position Orientation Groundspeed Altitude Reporting Facility
EDT Latitude Longitude Course Direction KTS MPH feet Rate Location/Type
09:58PM 39.8150 -82.9269 40° Northeast 101 116 900  Level Indianapolis Center
09:58PM 39.8219 -82.9194 40° Northeast 84 97 1,400 1,200 Climbing Indianapolis Center
10:00PM 39.8383 -82.8942 50° Northeast 96 110 2,800 1,140 Climbing Indianapolis Center
10:00PM 39.8403 -82.8903 57° Northeast 84 97 3,000 1,140 Climbing Indianapolis Center
10:01PM 39.8564 -82.8744 37° Northeast 85 98 4,000 1,080 Climbing Indianapolis Center
10:01PM 39.8583 -82.8708 55° Northeast 83 96 4,100 1,140 Climbing Indianapolis Center
10:02PM 39.8781 -82.8608 21° North 85 98 5,200 1,200 Climbing Indianapolis Center
10:02PM 39.8808 -82.8575 43° Northeast 85 98 5,400 1,200 Climbing Indianapolis Center
10:03PM 39.8981 -82.8439 31° Northeast 86 99 6,400 1,140 Climbing Indianapolis Center
10:03PM 39.9022 -82.8419 20° North 88 101 6,600 1,080 Climbing Indianapolis Center
10:04PM 39.9200 -82.8300 27° Northeast 90 104 7,500 1,140 Climbing Indianapolis Center
10:04PM 39.9281 -82.8233 32° Northeast 89 102 7,800 1,080 Climbing Indianapolis Center
10:05PM 39.9461 -82.8142 21° North 95 109 8,600 1,080 Climbing Indianapolis Center
10:05PM 39.9517 -82.8072 44° Northeast 92 106 8,900 360 Climbing Indianapolis Center
10:06PM 39.9747 -82.7928 26° Northeast 137 158 9,000 60 Climbing Indianapolis Center
10:06PM 39.9836 -82.7839 37° Northeast 121 139 9,000  Level Indianapolis Center
10:07PM 40.0144 -82.7644 26° Northeast 182 209 9,000  Level Indianapolis Center
10:07PM 40.0275 -82.7542 31° Northeast 167 192 9,000  Level Indianapolis Center
10:08PM 40.0561 -82.7339 28° Northeast 178 205 9,000  Level Indianapolis Center
10:08PM 40.0700 -82.7239 29° Northeast 173 199 9,000  Level Indianapolis Center
10:09PM 40.0978 -82.7058 26° Northeast 170 196 9,000  Level Indianapolis Center
10:09PM 40.1128 -82.6939 31° Northeast 173 199 9,000  Level Indianapolis Center
10:10PM 40.1439 -82.6728 27° Northeast 169 194 9,000  Level Indianapolis Center
10:10PM 40.1542 -82.6650 30° Northeast 170 196 9,000  Level Indianapolis Center
10:11PM 40.1789 -82.6494 26° Northeast 169 194 9,000  Level Indianapolis Center
10:11PM 40.1958 -82.6364 30° Northeast 168 193 9,000  Level Indianapolis Center
10:12PM 40.2228 -82.6186 27° Northeast 169 194 9,000  Level Indianapolis Center
10:12PM 40.2378 -82.6069 31° Northeast 169 194 9,000  Level Indianapolis Center
10:13PM 40.2642 -82.5906 25° Northeast 169 194 9,000  Level Indianapolis Center
10:13PM 40.2794 -82.5758 36° Northeast 170 196 9,000  Level Indianapolis Center
10:13PM 40.2994 -82.5642 24° Northeast 169 194 9,000  Level Indianapolis Center
10:14PM 40.3217 -82.5472 30° Northeast 170 196 9,000  Level Indianapolis Center
10:15PM 40.3631 -82.5175 29° Northeast 167 192 9,000  Level Indianapolis Center
10:16PM 40.4056 -82.4878 28° Northeast 171 197 9,000  Level Indianapolis Center
10:17PM 40.4478 -82.4572 29° Northeast 171 197 9,000  Level Indianapolis Center
10:18PM 40.4892 -82.4272 29° Northeast 170 196 9,000  Level Indianapolis Center
10:19PM 40.5308 -82.3975 28° Northeast 168 193 9,000  Level Indianapolis Center
10:20PM 40.5733 -82.3683 28° Northeast 169 194 9,000  Level Indianapolis Center
10:21PM 40.6150 -82.3375 29° Northeast 170 196 9,000  Level Indianapolis Center
10:22PM 40.6567 -82.3081 28° Northeast 169 194 9,000  Level Indianapolis Center
10:23PM 40.6978 -82.2769 30° Northeast 168 193 9,000  Level Indianapolis Center
10:24PM 40.7400 -82.2478 28° Northeast 169 194 9,000  Level Indianapolis Center
10:25PM 40.7817 -82.2169 29° Northeast 170 196 9,000  Level Indianapolis Center
10:26PM 40.8317 -82.1822 28° Northeast 171 197 9,000  Level Indianapolis Center
10:27PM 40.8742 -82.1511 29° Northeast 173 199 9,000  Level Indianapolis Center
10:28PM 40.8903 -82.1406 26° Northeast 172 198 9,000  Level Cleveland Center
10:28PM 40.9008 -82.1325 30° Northeast 168 193 9,000  Level Cleveland Center
10:29PM 40.9472 -82.1006 27° Northeast 168 193 9,000  Level Cleveland Center
10:30PM 40.9725 -82.0847 25° Northeast 171 197 9,000  Level Cleveland Center
10:30PM 40.9872 -82.0686 40° Northeast 162 186 9,000  Level Cleveland Center
10:31PM 41.0186 -82.0500 24° Northeast 168 193 9,000  Level Cleveland Center
10:32PM 41.0483 -82.0258 32° Northeast 170 196 9,000  Level Cleveland Center
10:32PM 41.0692 -82.0097 30° Northeast 162 186 9,000  Level Cleveland Center
10:32PM 41.0839 -82.0019 22° Northeast 169 194 9,000  Level Cleveland Center
10:33PM 41.1114 -81.9803 31° Northeast 162 186 9,000  Level Cleveland Center
10:33PM 41.1261 -81.9697 28° Northeast 171 197 9,000 -300 Level Cleveland Center
10:34PM 41.1533 -81.9481 31° Northeast 162 186 8,700 -540 Descending Cleveland Center
10:34PM 41.1703 -81.9375 25° Northeast 179 206 8,500 -600 Descending Cleveland Center
10:35PM 41.2144 -81.9081 27° Northeast 185 213 7,900 -660 Descending Cleveland Center
10:36PM 41.2647 -81.8706 29° Northeast 194 223 7,200 -480 Descending Cleveland Center
10:37PM 41.3069 -81.8353 32° Northeast 187 215 7,000 -120 Descending Cleveland Center
10:39PM 41.3553 -81.7864 37° Northeast 163 188 7,000 -60 Level Cleveland Center
10:40PM 41.3831 -81.7344 55° Northeast 177 204 6,900 -360 Descending Cleveland Center
10:41PM 41.4086 -81.6822 57° Northeast 196 226 6,400 -540 Descending Cleveland Center
10:42PM 41.4339 -81.6356 54° Northeast 187 215 6,000 -660 Descending Cleveland Center
10:43PM 41.4678 -81.5836 49° Northeast 197 227 5,200 -900 Descending Cleveland Center
10:44PM 41.4933 -81.5311 57° Northeast 173 199 4,300 -1,020 Descending Cleveland Center
10:45PM 41.5208 -81.4761 56° Northeast 166 191 3,200 -780 Descending Cleveland Center
10:45PM 41.5503 -81.4544 29° Northeast 163 188 2,900 -120 Descending Cleveland Center
10:46PM 41.5811 -81.4964 315° West 147 169 3,000  Climbing Cleveland Center
10:47PM 41.5828 -81.5436 273° West 175 201 2,900 -600 Descending Cleveland Center
10:49PM 41.5553 -81.5986 236° Southwest 153 176 1,900 -900 Descending Cleveland Center